createdAt,value
2023-01-29T00:00:01.478Z,0.00
2023-01-29T00:01:01.496Z,0.00
2023-01-29T00:02:01.502Z,0.00
2023-01-29T00:03:01.481Z,0.00
2023-01-29T00:04:01.426Z,0.00
2023-01-29T00:05:12.565Z,0.00
2023-01-29T00:06:01.401Z,0.00
2023-01-29T00:07:01.419Z,0.00
2023-01-29T00:08:01.378Z,0.00
2023-01-29T00:09:01.401Z,0.00
2023-01-29T00:10:01.403Z,0.00
2023-01-29T00:11:01.360Z,0.00
2023-01-29T00:12:01.342Z,0.00
2023-01-29T00:13:01.363Z,0.00
2023-01-29T00:14:01.313Z,0.00
2023-01-29T00:15:01.329Z,0.00
2023-01-29T00:16:01.304Z,0.00
2023-01-29T00:17:01.482Z,0.00
2023-01-29T00:18:01.273Z,0.00
2023-01-29T00:19:01.293Z,0.00
2023-01-29T00:20:01.263Z,0.00
2023-01-29T00:21:01.264Z,0.00
2023-01-29T00:22:01.248Z,0.00
2023-01-29T00:23:01.238Z,0.00
2023-01-29T00:24:01.315Z,0.00
2023-01-29T00:25:01.231Z,0.00
2023-01-29T00:26:01.201Z,0.00
2023-01-29T00:27:01.199Z,0.00
2023-01-29T00:28:01.176Z,0.00
2023-01-29T00:29:01.179Z,0.00
2023-01-29T00:30:01.163Z,0.00
2023-01-29T00:31:01.243Z,0.00
2023-01-29T00:32:01.306Z,0.00
2023-01-29T00:33:01.140Z,0.00
2023-01-29T00:34:01.158Z,0.00
2023-01-29T00:35:01.145Z,0.00
2023-01-29T00:36:01.108Z,0.00
2023-01-29T00:37:01.099Z,0.00
2023-01-29T00:38:01.080Z,0.00
2023-01-29T00:39:01.113Z,0.00
2023-01-29T00:40:01.071Z,0.00
2023-01-29T00:41:01.076Z,0.00
2023-01-29T00:42:01.028Z,0.00
2023-01-29T00:43:01.037Z,0.00
2023-01-29T00:44:01.025Z,0.00
2023-01-29T00:45:01.031Z,0.00
2023-01-29T00:46:00.989Z,0.00
2023-01-29T00:47:01.020Z,0.00
2023-01-29T00:48:01.000Z,0.00
2023-01-29T00:49:01.024Z,0.00
2023-01-29T00:50:00.952Z,0.00
2023-01-29T00:51:00.963Z,0.00
2023-01-29T00:52:00.942Z,0.00
2023-01-29T00:53:00.936Z,0.00
2023-01-29T00:54:00.916Z,0.00
2023-01-29T00:55:00.960Z,0.00
2023-01-29T00:56:00.890Z,0.00
2023-01-29T00:57:00.914Z,0.00
2023-01-29T00:58:00.877Z,0.00
2023-01-29T00:59:00.875Z,0.00
2023-01-29T01:00:00.881Z,0.00
2023-01-29T01:01:00.866Z,0.00
2023-01-29T01:02:00.928Z,0.00
2023-01-29T01:03:00.839Z,0.00
2023-01-29T01:04:00.841Z,0.00
2023-01-29T01:05:00.804Z,0.00
2023-01-29T01:06:00.822Z,0.00
2023-01-29T01:07:00.782Z,0.00
2023-01-29T01:08:00.826Z,0.00
2023-01-29T01:09:00.761Z,0.00
2023-01-29T01:10:00.805Z,0.00
2023-01-29T01:11:00.751Z,0.00
2023-01-29T01:12:00.749Z,0.00
2023-01-29T01:13:00.740Z,0.00
2023-01-29T01:14:00.753Z,0.00
2023-01-29T01:15:00.699Z,0.00
2023-01-29T01:16:00.954Z,0.00
2023-01-29T01:17:00.681Z,0.00
2023-01-29T01:18:00.702Z,0.00
2023-01-29T01:19:00.657Z,0.00
2023-01-29T01:20:00.684Z,0.00
2023-01-29T01:21:00.705Z,0.00
2023-01-29T01:22:00.663Z,0.00
2023-01-29T01:23:00.639Z,0.00
2023-01-29T01:24:00.643Z,0.00
2023-01-29T01:25:00.609Z,0.00
2023-01-29T01:26:00.658Z,0.00
2023-01-29T01:27:00.581Z,0.00
2023-01-29T01:28:04.984Z,0.00
2023-01-29T01:29:00.584Z,0.00
2023-01-29T01:30:00.577Z,0.00
2023-01-29T01:31:00.565Z,0.00
2023-01-29T01:32:00.622Z,0.00
2023-01-29T01:33:00.533Z,0.00
2023-01-29T01:34:00.539Z,0.00
2023-01-29T01:35:00.519Z,0.00
2023-01-29T01:36:00.491Z,0.00
2023-01-29T01:37:00.525Z,0.00
2023-01-29T01:38:00.477Z,0.00
2023-01-29T01:39:00.496Z,0.00
2023-01-29T01:40:00.464Z,0.00
2023-01-29T01:41:00.448Z,0.00
2023-01-29T01:42:00.433Z,0.00
2023-01-29T01:43:00.443Z,0.00
2023-01-29T01:44:00.409Z,0.00
2023-01-29T01:45:00.445Z,0.00
2023-01-29T01:46:00.542Z,0.00
2023-01-29T01:47:00.405Z,0.00
2023-01-29T01:48:00.367Z,0.00
2023-01-29T01:49:00.383Z,0.00
2023-01-29T01:50:00.353Z,0.00
2023-01-29T01:51:00.390Z,0.00
2023-01-29T01:52:00.325Z,0.00
2023-01-29T01:53:00.354Z,0.00
2023-01-29T01:54:00.328Z,0.00
2023-01-29T01:55:00.319Z,0.00
2023-01-29T01:56:00.312Z,0.00
2023-01-29T01:57:00.323Z,0.00
2023-01-29T01:58:00.270Z,0.00
2023-01-29T01:59:00.296Z,0.00
2023-01-29T02:00:00.244Z,0.00
2023-01-29T02:01:00.342Z,0.00
2023-01-29T02:02:00.353Z,0.00
2023-01-29T02:03:00.254Z,0.00
2023-01-29T02:04:00.205Z,0.00
2023-01-29T02:05:00.236Z,0.00
2023-01-29T02:06:00.212Z,0.00
2023-01-29T02:07:00.201Z,0.00
2023-01-29T02:08:00.210Z,0.00
2023-01-29T02:09:00.181Z,0.00
2023-01-29T02:10:00.148Z,0.00
2023-01-29T02:11:00.170Z,0.00
2023-01-29T02:12:00.127Z,0.00
2023-01-29T02:13:00.145Z,0.00
2023-01-29T02:14:00.111Z,0.00
2023-01-29T02:15:00.159Z,0.00
2023-01-29T02:16:00.101Z,0.00
2023-01-29T02:17:00.113Z,0.00
2023-01-29T02:18:00.102Z,0.00
2023-01-29T02:19:00.112Z,0.00
2023-01-29T02:20:00.058Z,0.00
2023-01-29T02:21:00.088Z,0.00
2023-01-29T02:22:00.032Z,0.00
2023-01-29T02:23:02.064Z,0.00
2023-01-29T02:24:00.168Z,0.00
2023-01-29T02:25:00.011Z,0.00
2023-01-29T02:25:59.988Z,0.00
2023-01-29T02:27:00.004Z,0.00
2023-01-29T02:27:59.981Z,0.00
2023-01-29T02:28:59.983Z,0.00
2023-01-29T02:29:59.946Z,0.00
2023-01-29T02:30:59.979Z,0.00
2023-01-29T02:31:59.947Z,0.00
2023-01-29T02:32:59.931Z,0.00
2023-01-29T02:33:59.913Z,0.00
2023-01-29T02:34:59.941Z,0.00
2023-01-29T02:35:59.882Z,0.00
2023-01-29T02:36:59.894Z,0.00
2023-01-29T02:37:59.869Z,0.00
2023-01-29T02:38:59.885Z,0.00
2023-01-29T02:39:59.846Z,0.00
2023-01-29T02:40:59.885Z,0.00
2023-01-29T02:41:59.831Z,0.00
2023-01-29T02:42:59.844Z,0.00
2023-01-29T02:43:59.809Z,0.00
2023-01-29T02:44:59.809Z,0.00
2023-01-29T02:45:59.831Z,0.00
2023-01-29T02:46:59.813Z,0.00
2023-01-29T02:47:59.769Z,0.00
2023-01-29T02:48:59.796Z,0.00
2023-01-29T02:49:59.742Z,0.00
2023-01-29T02:50:59.747Z,0.00
2023-01-29T02:51:59.740Z,0.00
2023-01-29T02:52:59.744Z,0.00
2023-01-29T02:53:59.713Z,0.00
2023-01-29T02:54:59.741Z,0.00
2023-01-29T02:55:59.699Z,0.00
2023-01-29T02:56:59.715Z,0.00
2023-01-29T02:57:59.685Z,0.00
2023-01-29T02:58:59.686Z,0.00
2023-01-29T02:59:59.670Z,0.00
2023-01-29T03:00:59.761Z,0.00
2023-01-29T03:01:59.703Z,0.00
2023-01-29T03:02:59.644Z,0.00
2023-01-29T03:03:59.608Z,0.00
2023-01-29T03:04:59.634Z,0.00
2023-01-29T03:05:59.585Z,0.00
2023-01-29T03:06:59.604Z,0.00
2023-01-29T03:07:59.571Z,0.00
2023-01-29T03:08:59.582Z,0.00
2023-01-29T03:09:59.542Z,0.00
2023-01-29T03:10:59.565Z,0.00
2023-01-29T03:11:59.522Z,0.00
2023-01-29T03:12:59.540Z,0.00
2023-01-29T03:13:59.507Z,0.00
2023-01-29T03:14:59.521Z,0.00
2023-01-29T03:15:59.481Z,0.00
2023-01-29T03:16:59.486Z,0.00
2023-01-29T03:17:59.473Z,0.00
2023-01-29T03:18:59.483Z,0.00
2023-01-29T03:19:59.458Z,0.00
2023-01-29T03:20:59.449Z,0.00
2023-01-29T03:21:59.805Z,0.00
2023-01-29T03:22:59.436Z,0.00
2023-01-29T03:23:59.486Z,0.00
2023-01-29T03:24:59.422Z,0.00
2023-01-29T03:25:59.384Z,0.00
2023-01-29T03:26:59.441Z,0.00
2023-01-29T03:27:59.379Z,0.00
2023-01-29T03:28:59.390Z,0.00
2023-01-29T03:29:59.370Z,0.00
2023-01-29T03:30:59.458Z,0.00
2023-01-29T03:31:59.391Z,0.00
2023-01-29T03:32:59.341Z,0.00
2023-01-29T03:33:59.316Z,0.00
2023-01-29T03:34:59.326Z,0.00
2023-01-29T03:35:59.287Z,0.00
2023-01-29T03:36:59.289Z,0.00
2023-01-29T03:37:59.272Z,0.00
2023-01-29T03:38:59.282Z,0.00
2023-01-29T03:39:59.251Z,0.00
2023-01-29T03:40:59.259Z,0.00
2023-01-29T03:41:59.229Z,0.00
2023-01-29T03:42:59.232Z,0.00
2023-01-29T03:43:59.210Z,0.00
2023-01-29T03:44:59.224Z,0.00
2023-01-29T03:45:59.283Z,0.00
2023-01-29T03:46:59.196Z,0.00
2023-01-29T03:47:59.159Z,0.00
2023-01-29T03:48:59.191Z,0.00
2023-01-29T03:49:59.138Z,0.00
2023-01-29T03:50:59.159Z,0.00
2023-01-29T03:51:59.121Z,0.00
2023-01-29T03:52:59.139Z,0.00
2023-01-29T03:53:59.114Z,0.00
2023-01-29T03:54:59.107Z,0.00
2023-01-29T03:55:59.085Z,0.00
2023-01-29T03:56:59.085Z,0.00
2023-01-29T03:57:59.061Z,0.00
2023-01-29T03:58:59.080Z,0.00
2023-01-29T03:59:59.056Z,0.00
2023-01-29T04:00:59.046Z,0.00
2023-01-29T04:01:59.022Z,0.00
2023-01-29T04:02:59.039Z,0.00
2023-01-29T04:03:59.064Z,0.00
2023-01-29T04:04:59.020Z,0.00
2023-01-29T04:05:58.980Z,0.00
2023-01-29T04:06:58.999Z,0.00
2023-01-29T04:07:58.976Z,0.00
2023-01-29T04:08:58.971Z,0.00
2023-01-29T04:09:58.949Z,0.00
2023-01-29T04:10:58.945Z,0.00
2023-01-29T04:11:58.920Z,0.00
2023-01-29T04:12:58.940Z,0.00
2023-01-29T04:13:58.900Z,0.00
2023-01-29T04:14:58.928Z,0.00
2023-01-29T04:15:58.891Z,0.00
2023-01-29T04:16:58.889Z,0.00
2023-01-29T04:17:58.858Z,0.00
2023-01-29T04:18:58.882Z,0.00
2023-01-29T04:19:58.847Z,0.00
2023-01-29T04:20:58.859Z,0.00
2023-01-29T04:21:58.818Z,0.00
2023-01-29T04:22:58.822Z,0.00
2023-01-29T04:23:58.883Z,0.00
2023-01-29T04:24:58.809Z,0.00
2023-01-29T04:25:58.787Z,0.00
2023-01-29T04:26:58.793Z,0.00
2023-01-29T04:27:58.757Z,0.00
2023-01-29T04:28:58.779Z,0.00
2023-01-29T04:29:58.741Z,0.00
2023-01-29T04:30:58.882Z,0.00
2023-01-29T04:31:58.744Z,0.00
2023-01-29T04:32:58.735Z,0.00
2023-01-29T04:33:58.698Z,0.00
2023-01-29T04:34:58.716Z,0.00
2023-01-29T04:35:58.676Z,0.00
2023-01-29T04:36:58.706Z,0.00
2023-01-29T04:37:58.670Z,0.00
2023-01-29T04:38:58.684Z,0.00
2023-01-29T04:39:58.635Z,0.00
2023-01-29T04:40:58.695Z,0.00
2023-01-29T04:41:58.627Z,0.00
2023-01-29T04:42:58.640Z,0.00
2023-01-29T04:43:58.599Z,0.00
2023-01-29T04:44:58.601Z,0.00
2023-01-29T04:45:58.576Z,0.00
2023-01-29T04:46:58.614Z,0.00
2023-01-29T04:47:58.556Z,0.00
2023-01-29T04:48:58.574Z,0.00
2023-01-29T04:49:58.537Z,0.00
2023-01-29T04:50:58.556Z,0.00
2023-01-29T04:51:58.516Z,0.00
2023-01-29T04:52:58.569Z,0.00
2023-01-29T04:53:58.495Z,0.00
2023-01-29T04:54:58.513Z,0.00
2023-01-29T04:55:58.493Z,0.00
2023-01-29T04:56:58.479Z,0.00
2023-01-29T04:57:58.470Z,0.00
2023-01-29T04:58:58.460Z,0.00
2023-01-29T04:59:58.436Z,0.00
2023-01-29T05:00:58.465Z,0.00
2023-01-29T05:01:58.441Z,0.00
2023-01-29T05:02:58.494Z,0.00
2023-01-29T05:03:58.395Z,0.00
2023-01-29T05:04:58.415Z,0.00
2023-01-29T05:05:58.382Z,0.00
2023-01-29T05:06:58.384Z,0.00
2023-01-29T05:07:58.362Z,0.00
2023-01-29T05:08:58.359Z,0.00
2023-01-29T05:09:58.335Z,0.00
2023-01-29T05:10:58.351Z,0.00
2023-01-29T05:11:58.313Z,0.00
2023-01-29T05:12:58.333Z,0.00
2023-01-29T05:13:58.317Z,0.00
2023-01-29T05:14:58.287Z,0.00
2023-01-29T05:15:58.326Z,0.00
2023-01-29T05:16:58.271Z,0.00
2023-01-29T05:17:58.291Z,0.00
2023-01-29T05:18:58.269Z,0.00
2023-01-29T05:19:58.254Z,0.00
2023-01-29T05:20:58.223Z,0.00
2023-01-29T05:21:58.228Z,0.00
2023-01-29T05:22:58.207Z,0.00
2023-01-29T05:23:58.236Z,0.00
2023-01-29T05:24:58.210Z,0.00
2023-01-29T05:25:58.222Z,0.00
2023-01-29T05:26:58.171Z,0.00
2023-01-29T05:27:58.191Z,0.00
2023-01-29T05:28:58.162Z,0.00
2023-01-29T05:29:58.164Z,0.00
2023-01-29T05:30:58.328Z,0.00
2023-01-29T05:31:58.165Z,0.00
2023-01-29T05:32:58.104Z,0.00
2023-01-29T05:33:58.124Z,0.00
2023-01-29T05:34:58.099Z,0.00
2023-01-29T05:35:58.107Z,0.00
2023-01-29T05:36:58.068Z,0.00
2023-01-29T05:37:58.084Z,0.00
2023-01-29T05:38:58.055Z,0.00
2023-01-29T05:39:58.061Z,0.00
2023-01-29T05:40:58.027Z,0.00
2023-01-29T05:41:58.029Z,0.00
2023-01-29T05:42:58.005Z,0.00
2023-01-29T05:43:58.032Z,0.00
2023-01-29T05:44:58.027Z,0.00
2023-01-29T05:45:58.037Z,0.00
2023-01-29T05:46:57.968Z,0.00
2023-01-29T05:47:57.979Z,0.00
2023-01-29T05:48:57.948Z,0.00
2023-01-29T05:49:57.982Z,0.00
2023-01-29T05:50:57.922Z,0.00
2023-01-29T05:51:57.946Z,0.00
2023-01-29T05:52:57.912Z,0.00
2023-01-29T05:53:57.924Z,0.00
2023-01-29T05:54:57.885Z,0.00
2023-01-29T05:55:57.911Z,0.00
2023-01-29T05:56:57.862Z,0.00
2023-01-29T05:57:57.879Z,0.00
2023-01-29T05:58:57.844Z,0.00
2023-01-29T05:59:57.848Z,0.00
2023-01-29T06:00:57.843Z,0.00
2023-01-29T06:01:57.874Z,0.00
2023-01-29T06:02:57.870Z,0.00
2023-01-29T06:03:57.824Z,0.00
2023-01-29T06:04:57.792Z,0.00
2023-01-29T06:05:57.789Z,0.00
2023-01-29T06:06:57.767Z,0.00
2023-01-29T06:07:57.769Z,0.00
2023-01-29T06:08:57.752Z,0.00
2023-01-29T06:09:57.763Z,0.00
2023-01-29T06:10:57.736Z,0.00
2023-01-29T06:11:57.750Z,0.00
2023-01-29T06:12:57.714Z,0.00
2023-01-29T06:13:57.708Z,0.00
2023-01-29T06:14:57.690Z,0.00
2023-01-29T06:15:57.783Z,0.00
2023-01-29T06:16:57.659Z,0.00
2023-01-29T06:17:57.682Z,0.00
2023-01-29T06:18:57.650Z,0.00
2023-01-29T06:19:57.671Z,0.00
2023-01-29T06:20:57.628Z,0.00
2023-01-29T06:21:57.720Z,0.00
2023-01-29T06:22:57.604Z,0.00
2023-01-29T06:23:57.615Z,1.00
2023-01-29T06:24:57.587Z,0.00
2023-01-29T06:25:57.553Z,1.00
2023-01-29T06:26:57.509Z,1.00
2023-01-29T06:27:59.450Z,1.00
2023-01-29T06:28:57.542Z,0.00
2023-01-29T06:29:57.585Z,0.00
2023-01-29T06:31:01.285Z,0.00
2023-01-29T06:31:57.675Z,0.00
2023-01-29T06:32:57.501Z,0.00
2023-01-29T06:33:57.524Z,0.00
2023-01-29T06:34:57.438Z,2.00
2023-01-29T06:35:57.462Z,1.00
2023-01-29T06:36:57.436Z,3.00
2023-01-29T06:37:57.417Z,1.00
2023-01-29T06:38:57.398Z,1.00
2023-01-29T06:39:57.392Z,1.00
2023-01-29T06:40:57.371Z,1.00
2023-01-29T06:41:57.419Z,1.00
2023-01-29T06:42:57.359Z,2.00
2023-01-29T06:43:57.373Z,2.00
2023-01-29T06:44:57.332Z,2.00
2023-01-29T06:45:57.455Z,3.00
2023-01-29T06:46:57.306Z,2.00
2023-01-29T06:47:58.791Z,3.00
2023-01-29T06:48:57.292Z,3.00
2023-01-29T06:49:57.294Z,3.00
2023-01-29T06:50:57.276Z,3.00
2023-01-29T06:51:57.296Z,8.00
2023-01-29T06:52:57.250Z,4.00
2023-01-29T06:53:57.277Z,4.00
2023-01-29T06:54:57.227Z,4.00
2023-01-29T06:55:57.250Z,5.00
2023-01-29T06:56:57.208Z,6.00
2023-01-29T06:57:57.239Z,6.00
2023-01-29T06:58:57.190Z,7.00
2023-01-29T06:59:57.216Z,7.00
2023-01-29T07:00:57.211Z,7.00
2023-01-29T07:01:57.213Z,9.00
2023-01-29T07:02:57.146Z,9.00
2023-01-29T07:03:57.173Z,10.00
2023-01-29T07:04:57.130Z,11.00
2023-01-29T07:05:57.136Z,11.00
2023-01-29T07:06:57.124Z,11.00
2023-01-29T07:07:57.111Z,12.00
2023-01-29T07:08:57.090Z,12.00
2023-01-29T07:09:57.106Z,13.00
2023-01-29T07:10:57.070Z,13.00
2023-01-29T07:11:57.069Z,17.00
2023-01-29T07:12:57.060Z,15.00
2023-01-29T07:13:57.067Z,16.00
2023-01-29T07:14:57.024Z,17.00
2023-01-29T07:15:57.048Z,19.00
2023-01-29T07:16:57.006Z,21.00
2023-01-29T07:17:57.036Z,23.00
2023-01-29T07:18:56.985Z,24.00
2023-01-29T07:19:57.002Z,25.00
2023-01-29T07:20:56.975Z,27.00
2023-01-29T07:21:56.988Z,29.00
2023-01-29T07:22:56.947Z,32.00
2023-01-29T07:23:57.022Z,35.00
2023-01-29T07:24:56.928Z,38.00
2023-01-29T07:25:56.944Z,42.00
2023-01-29T07:26:56.908Z,45.00
2023-01-29T07:27:57.770Z,50.00
2023-01-29T07:28:56.909Z,54.00
2023-01-29T07:29:56.896Z,60.00
2023-01-29T07:30:56.896Z,64.00
2023-01-29T07:31:57.020Z,67.00
2023-01-29T07:32:56.847Z,70.00
2023-01-29T07:33:56.865Z,75.00
2023-01-29T07:34:56.834Z,78.00
2023-01-29T07:35:56.831Z,78.00
2023-01-29T07:36:56.821Z,88.00
2023-01-29T07:37:56.810Z,71.00
2023-01-29T07:38:56.795Z,67.00
2023-01-29T07:39:56.809Z,69.00
2023-01-29T07:40:56.766Z,71.00
2023-01-29T07:41:56.769Z,71.00
2023-01-29T07:42:56.744Z,72.00
2023-01-29T07:43:56.758Z,74.00
2023-01-29T07:44:56.738Z,73.00
2023-01-29T07:45:56.949Z,73.00
2023-01-29T07:46:56.703Z,126.00
2023-01-29T07:47:56.733Z,70.00
2023-01-29T07:48:56.703Z,63.00
2023-01-29T07:49:56.708Z,56.00
2023-01-29T07:50:56.682Z,57.00
2023-01-29T07:51:56.667Z,60.00
2023-01-29T07:52:56.663Z,63.00
2023-01-29T07:53:56.674Z,66.00
2023-01-29T07:54:56.621Z,67.00
2023-01-29T07:55:56.636Z,127.00
2023-01-29T07:56:56.609Z,90.00
2023-01-29T07:57:56.607Z,61.00
2023-01-29T07:58:56.607Z,56.00
2023-01-29T07:59:56.598Z,52.00
2023-01-29T08:00:56.600Z,63.00
2023-01-29T08:01:56.629Z,79.00
2023-01-29T08:02:56.544Z,76.00
2023-01-29T08:03:56.562Z,60.00
2023-01-29T08:04:56.554Z,64.00
2023-01-29T08:05:56.557Z,68.00
2023-01-29T08:06:56.500Z,67.00
2023-01-29T08:08:06.103Z,57.00
2023-01-29T08:08:56.486Z,63.00
2023-01-29T08:09:56.513Z,50.00
2023-01-29T08:10:56.472Z,59.00
2023-01-29T08:11:56.497Z,49.00
2023-01-29T08:12:56.443Z,57.00
2023-01-29T08:13:56.461Z,75.00
2023-01-29T08:14:56.420Z,68.00
2023-01-29T08:15:56.435Z,74.00
2023-01-29T08:16:56.400Z,70.00
2023-01-29T08:17:58.294Z,81.00
2023-01-29T08:18:56.384Z,63.00
2023-01-29T08:19:56.390Z,69.00
2023-01-29T08:20:56.378Z,66.00
2023-01-29T08:21:56.376Z,76.00
2023-01-29T08:22:56.338Z,75.00
2023-01-29T08:23:56.414Z,84.00
2023-01-29T08:25:06.276Z,91.00
2023-01-29T08:25:56.479Z,98.00
2023-01-29T08:26:56.309Z,110.00
2023-01-29T08:27:56.305Z,123.00
2023-01-29T08:28:56.277Z,137.00
2023-01-29T08:29:56.298Z,148.00
2023-01-29T08:30:56.320Z,159.00
2023-01-29T08:31:56.330Z,185.00
2023-01-29T08:32:56.268Z,200.00
2023-01-29T08:33:56.246Z,152.00
2023-01-29T08:34:56.221Z,157.00
2023-01-29T08:35:56.236Z,160.00
2023-01-29T08:36:56.209Z,164.00
2023-01-29T08:37:56.210Z,170.00
2023-01-29T08:38:56.181Z,177.00
2023-01-29T08:39:56.200Z,188.00
2023-01-29T08:40:56.156Z,198.00
2023-01-29T08:41:56.192Z,206.00
2023-01-29T08:42:56.139Z,211.00
2023-01-29T08:43:56.144Z,217.00
2023-01-29T08:44:56.122Z,223.00
2023-01-29T08:45:56.168Z,231.00
2023-01-29T08:46:56.096Z,237.00
2023-01-29T08:47:56.120Z,241.00
2023-01-29T08:48:56.075Z,247.00
2023-01-29T08:49:56.097Z,256.00
2023-01-29T08:50:56.062Z,265.00
2023-01-29T08:51:56.076Z,285.00
2023-01-29T08:52:56.054Z,264.00
2023-01-29T08:53:56.061Z,282.00
2023-01-29T08:54:56.032Z,267.00
2023-01-29T08:55:56.037Z,336.00
2023-01-29T08:56:56.007Z,295.00
2023-01-29T08:57:56.024Z,276.00
2023-01-29T08:58:57.309Z,250.00
2023-01-29T08:59:55.983Z,277.00
2023-01-29T09:00:56.016Z,254.00
2023-01-29T09:01:55.961Z,405.00
2023-01-29T09:02:55.950Z,264.00
2023-01-29T09:03:55.957Z,225.00
2023-01-29T09:04:55.922Z,280.00
2023-01-29T09:05:55.924Z,243.00
2023-01-29T09:06:55.912Z,233.00
2023-01-29T09:07:55.919Z,290.00
2023-01-29T09:08:55.888Z,274.00
2023-01-29T09:09:55.901Z,343.00
2023-01-29T09:10:55.859Z,336.00
2023-01-29T09:11:55.879Z,185.00
2023-01-29T09:12:55.840Z,204.00
2023-01-29T09:13:55.853Z,203.00
2023-01-29T09:14:55.817Z,216.00
2023-01-29T09:15:56.863Z,220.00
2023-01-29T09:16:55.834Z,227.00
2023-01-29T09:17:55.804Z,271.00
2023-01-29T09:18:55.800Z,291.00
2023-01-29T09:19:55.784Z,228.00
2023-01-29T09:20:55.776Z,266.00
2023-01-29T09:21:55.768Z,261.00
2023-01-29T09:22:55.739Z,304.00
2023-01-29T09:23:55.762Z,270.00
2023-01-29T09:24:55.734Z,202.00
2023-01-29T09:25:55.727Z,226.00
2023-01-29T09:26:55.710Z,257.00
2023-01-29T09:27:55.705Z,305.00
2023-01-29T09:28:55.676Z,342.00
2023-01-29T09:29:55.679Z,361.00
2023-01-29T09:30:55.782Z,315.00
2023-01-29T09:31:55.775Z,328.00
2023-01-29T09:32:55.669Z,344.00
2023-01-29T09:33:55.636Z,689.00
2023-01-29T09:34:55.643Z,361.00
2023-01-29T09:35:55.612Z,377.00
2023-01-29T09:36:55.610Z,329.00
2023-01-29T09:37:55.588Z,271.00
2023-01-29T09:38:55.607Z,359.00
2023-01-29T09:39:55.576Z,214.00
2023-01-29T09:40:55.603Z,239.00
2023-01-29T09:41:55.548Z,278.00
2023-01-29T09:42:55.567Z,222.00
2023-01-29T09:43:55.524Z,246.00
2023-01-29T09:44:55.542Z,271.00
2023-01-29T09:45:55.532Z,296.00
2023-01-29T09:46:55.539Z,323.00
2023-01-29T09:47:55.491Z,340.00
2023-01-29T09:48:55.511Z,353.00
2023-01-29T09:49:55.467Z,361.00
2023-01-29T09:50:55.490Z,499.00
2023-01-29T09:51:55.444Z,327.00
2023-01-29T09:52:55.463Z,340.00
2023-01-29T09:53:55.426Z,388.00
2023-01-29T09:54:55.453Z,637.00
2023-01-29T09:55:55.403Z,411.00
2023-01-29T09:56:56.099Z,699.00
2023-01-29T09:57:55.382Z,422.00
2023-01-29T09:58:55.402Z,1445.00
2023-01-29T09:59:55.382Z,466.00
2023-01-29T10:00:55.379Z,665.00
2023-01-29T10:01:55.446Z,501.00
2023-01-29T10:02:55.357Z,420.00
2023-01-29T10:03:55.325Z,433.00
2023-01-29T10:04:55.344Z,445.00
2023-01-29T10:05:55.318Z,477.00
2023-01-29T10:06:55.359Z,546.00
2023-01-29T10:07:55.284Z,606.00
2023-01-29T10:08:55.302Z,656.00
2023-01-29T10:09:55.264Z,906.00
2023-01-29T10:10:55.292Z,675.00
2023-01-29T10:11:57.999Z,712.00
2023-01-29T10:12:55.266Z,737.00
2023-01-29T10:13:55.225Z,1276.00
2023-01-29T10:14:55.243Z,741.00
2023-01-29T10:15:55.204Z,901.00
2023-01-29T10:16:55.265Z,2651.00
2023-01-29T10:17:55.182Z,589.00
2023-01-29T10:18:55.192Z,514.00
2023-01-29T10:19:55.162Z,541.00
2023-01-29T10:20:55.168Z,653.00
2023-01-29T10:21:55.168Z,525.00
2023-01-29T10:22:55.162Z,388.00
2023-01-29T10:23:55.120Z,300.00
2023-01-29T10:24:55.145Z,339.00
2023-01-29T10:25:55.103Z,361.00
2023-01-29T10:26:55.112Z,308.00
2023-01-29T10:27:55.091Z,288.00
2023-01-29T10:28:55.112Z,297.00
2023-01-29T10:29:55.063Z,307.00
2023-01-29T10:30:55.129Z,315.00
2023-01-29T10:31:55.139Z,327.00
2023-01-29T10:32:55.061Z,347.00
2023-01-29T10:34:01.959Z,377.00
2023-01-29T10:34:55.052Z,405.00
2023-01-29T10:35:55.948Z,408.00
2023-01-29T10:36:55.007Z,423.00
2023-01-29T10:37:54.994Z,444.00
2023-01-29T10:38:54.990Z,481.00
2023-01-29T10:39:54.967Z,547.00
2023-01-29T10:40:54.972Z,548.00
2023-01-29T10:41:54.945Z,566.00
2023-01-29T10:42:54.972Z,515.00
2023-01-29T10:43:54.925Z,475.00
2023-01-29T10:44:54.928Z,461.00
2023-01-29T10:45:54.903Z,478.00
2023-01-29T10:46:54.921Z,512.00
2023-01-29T10:47:54.895Z,550.00
2023-01-29T10:48:54.892Z,643.00
2023-01-29T10:49:54.871Z,558.00
2023-01-29T10:50:54.879Z,702.00
2023-01-29T10:51:54.840Z,709.00
2023-01-29T10:52:57.040Z,502.00
2023-01-29T10:53:54.837Z,513.00
2023-01-29T10:54:54.828Z,549.00
2023-01-29T10:55:54.819Z,575.00
2023-01-29T10:56:54.807Z,1000.00
2023-01-29T10:57:54.781Z,685.00
2023-01-29T10:58:54.793Z,591.00
2023-01-29T10:59:54.775Z,436.00
2023-01-29T11:00:54.769Z,401.00
2023-01-29T11:01:54.796Z,349.00
2023-01-29T11:02:54.890Z,357.00
2023-01-29T11:03:54.723Z,373.00
2023-01-29T11:04:54.746Z,386.00
2023-01-29T11:05:54.715Z,468.00
2023-01-29T11:06:54.706Z,415.00
2023-01-29T11:07:54.683Z,403.00
2023-01-29T11:08:54.701Z,373.00
2023-01-29T11:09:54.685Z,371.00
2023-01-29T11:10:54.706Z,376.00
2023-01-29T11:11:54.644Z,466.00
2023-01-29T11:12:54.667Z,446.00
2023-01-29T11:13:54.625Z,373.00
2023-01-29T11:14:54.648Z,323.00
2023-01-29T11:15:54.611Z,333.00
2023-01-29T11:16:54.704Z,347.00
2023-01-29T11:17:54.578Z,364.00
2023-01-29T11:18:54.588Z,376.00
2023-01-29T11:19:54.567Z,359.00
2023-01-29T11:20:54.576Z,366.00
2023-01-29T11:21:54.541Z,377.00
2023-01-29T11:22:54.571Z,388.00
2023-01-29T11:23:54.525Z,406.00
2023-01-29T11:24:54.543Z,426.00
2023-01-29T11:25:54.502Z,432.00
2023-01-29T11:26:54.543Z,433.00
2023-01-29T11:27:54.479Z,414.00
2023-01-29T11:28:54.488Z,410.00
2023-01-29T11:29:54.459Z,418.00
2023-01-29T11:30:54.551Z,425.00
2023-01-29T11:31:54.524Z,411.00
2023-01-29T11:32:54.453Z,373.00
2023-01-29T11:33:54.415Z,374.00
2023-01-29T11:34:54.425Z,381.00
2023-01-29T11:35:54.406Z,414.00
2023-01-29T11:36:54.404Z,455.00
2023-01-29T11:37:54.383Z,403.00
2023-01-29T11:38:54.381Z,390.00
2023-01-29T11:40:00.888Z,372.00
2023-01-29T11:40:54.384Z,382.00
2023-01-29T11:41:54.342Z,391.00
2023-01-29T11:42:54.406Z,395.00
2023-01-29T11:43:54.323Z,404.00
2023-01-29T11:44:54.340Z,417.00
2023-01-29T11:45:54.301Z,494.00
2023-01-29T11:46:54.323Z,490.00
2023-01-29T11:47:54.288Z,420.00
2023-01-29T11:48:59.009Z,385.00
2023-01-29T11:49:54.278Z,381.00
2023-01-29T11:50:54.286Z,395.00
2023-01-29T11:51:54.244Z,410.00
2023-01-29T11:52:54.246Z,415.00
2023-01-29T11:53:54.217Z,419.00
2023-01-29T11:54:54.269Z,427.00
2023-01-29T11:55:54.253Z,467.00
2023-01-29T11:56:54.212Z,825.00
2023-01-29T11:57:54.227Z,448.00
2023-01-29T11:58:54.180Z,467.00
2023-01-29T11:59:54.173Z,504.00
2023-01-29T12:00:54.171Z,485.00
2023-01-29T12:01:54.133Z,535.00
2023-01-29T12:02:54.173Z,621.00
2023-01-29T12:03:54.170Z,954.00
2023-01-29T12:04:54.126Z,672.00
2023-01-29T12:05:54.140Z,677.00
2023-01-29T12:06:54.101Z,687.00
2023-01-29T12:07:54.071Z,697.00
2023-01-29T12:08:54.092Z,772.00
2023-01-29T12:09:54.049Z,1221.00
2023-01-29T12:10:54.064Z,835.00
2023-01-29T12:11:54.047Z,902.00
2023-01-29T12:12:54.038Z,988.00
2023-01-29T12:13:54.019Z,1520.00
2023-01-29T12:14:54.013Z,1929.00
2023-01-29T12:15:54.932Z,719.00
2023-01-29T12:16:53.993Z,730.00
2023-01-29T12:17:54.000Z,806.00
2023-01-29T12:18:53.971Z,958.00
2023-01-29T12:19:53.944Z,1723.00
2023-01-29T12:20:53.948Z,874.00
2023-01-29T12:21:53.967Z,1033.00
2023-01-29T12:22:53.940Z,773.00
2023-01-29T12:23:53.931Z,872.00
2023-01-29T12:24:53.923Z,733.00
2023-01-29T12:25:53.885Z,640.00
2023-01-29T12:26:53.891Z,630.00
2023-01-29T12:27:53.879Z,644.00
2023-01-29T12:28:53.871Z,731.00
2023-01-29T12:29:53.854Z,878.00
2023-01-29T12:30:53.896Z,882.00
2023-01-29T12:31:53.826Z,882.00
2023-01-29T12:32:53.834Z,878.00
2023-01-29T12:33:53.811Z,1108.00
2023-01-29T12:34:53.825Z,1440.00
2023-01-29T12:35:53.780Z,659.00
2023-01-29T12:36:53.790Z,659.00
2023-01-29T12:37:53.773Z,679.00
2023-01-29T12:38:53.792Z,760.00
2023-01-29T12:39:53.737Z,733.00
2023-01-29T12:40:53.747Z,736.00
2023-01-29T12:41:53.718Z,1013.00
2023-01-29T12:42:53.723Z,911.00
2023-01-29T12:43:53.719Z,724.00
2023-01-29T12:44:53.705Z,709.00
2023-01-29T12:45:53.683Z,828.00
2023-01-29T12:46:53.701Z,688.00
2023-01-29T12:47:53.664Z,847.00
2023-01-29T12:48:53.682Z,714.00
2023-01-29T12:49:53.637Z,704.00
2023-01-29T12:50:53.662Z,729.00
2023-01-29T12:51:53.623Z,647.00
2023-01-29T12:52:53.632Z,635.00
2023-01-29T12:53:53.627Z,853.00
2023-01-29T12:54:53.595Z,609.00
2023-01-29T12:55:53.570Z,620.00
2023-01-29T12:56:53.575Z,668.00